Terminal Aerodrome Forecast
Issued by NWS

Home | Current Version | Previous Version | Text Only | Print | Product List | Glossary On
Versions: 1 2 3 4 5 6 7 8 9 10 11 12
000
FTUS44 KEPZ 010541
TAFDMN
TAF
KDMN 010541Z 0106/0206 23005KT P6SM FEW120
     FM011400 09006KT P6SM FEW070
     FM011800 21011G17KT P6SM SCT070
     FM020000 24012KT P6SM SCT080
     FM020200 03010KT P6SM SCT100
     FM020400 07015KT P6SM FEW100=

USA.gov is the U.S. government's official web portal to all federal, state and local government web resources and services.